Time;durP1;ratioP1;P1;durP2;ratioP2;P2;SDS_P1;SDS_P2;PMS_P1;PMS_P2;Temp;Humidity;BMP_temperature;BMP_pressure;BME280_temperature;BME280_humidity;BME280_pressure;Samples;Min_cycle;Max_cycle;Signal;HPM_P1;HPM_P2
2022/12/30 00:01:06;;;;;;;39.30;19.40;;;;;;;3.76;78.33;98225.23;103038;1313;139980;-76
2022/12/30 00:03:32;;;;;;;39.90;20.50;;;;;;;3.77;78.13;98221.86;103153;1284;22473;-76
2022/12/30 00:05:58;;;;;;;36.40;18.80;;;;;;;3.77;78.09;98216.77;103201;1300;22570;-76
2022/12/30 00:11:10;;;;;;;39.60;20.50;;;;;;;3.74;78.14;98221.16;103066;1292;23273;-76
2022/12/30 00:33:51;;;;;;;42.60;22.40;;;;;;;3.62;78.53;98210.77;103676;1292;24386;-76
2022/12/30 00:36:18;;;;;;;45.00;21.00;;;;;;;3.61;78.66;98214.79;103001;1298;138269;-76
2022/12/30 00:38:44;;;;;;;49.30;22.60;;;;;;;3.60;78.64;98220.45;103343;1290;23312;-76
2022/12/30 00:43:57;;;;;;;49.00;24.90;;;;;;;3.58;78.56;98221.70;102602;1297;1430279;-77
2022/12/30 00:46:23;;;;;;;46.60;21.90;;;;;;;3.56;78.54;98225.91;103095;1290;22516;-76
2022/12/30 00:57:05;;;;;;;32.20;16.80;;;;;;;3.50;78.62;98220.44;103228;1307;22542;-76
2022/12/30 00:59:31;;;;;;;33.80;17.20;;;;;;;3.50;78.71;98221.52;103776;1300;25283;-76
2022/12/30 01:01:58;;;;;;;36.00;17.40;;;;;;;3.50;78.64;98223.67;102950;1287;138138;-76
2022/12/30 01:04:24;;;;;;;37.00;17.50;;;;;;;3.50;78.44;98222.80;103327;1288;22561;-76
2022/12/30 01:06:50;;;;;;;34.50;17.30;;;;;;;3.49;78.52;98223.14;102842;1305;138431;-76
2022/12/30 01:09:16;;;;;;;41.60;20.90;;;;;;;3.47;78.51;98221.40;103920;1284;25400;-76
2022/12/30 01:11:42;;;;;;;41.20;19.60;;;;;;;3.46;78.55;98214.35;103612;1306;22489;-76
2022/12/30 01:14:09;;;;;;;35.40;16.60;;;;;;;3.45;78.58;98214.09;103544;1300;138813;-76
2022/12/30 01:16:35;;;;;;;35.40;17.00;;;;;;;3.44;78.56;98211.16;103675;1298;22244;-76
2022/12/30 01:19:01;;;;;;;33.20;15.80;;;;;;;3.44;78.57;98207.23;103054;1290;138116;-76
2022/12/30 01:21:28;;;;;;;34.00;15.80;;;;;;;3.44;78.57;98201.85;103113;1307;22611;-76
2022/12/30 01:23:54;;;;;;;40.10;18.50;;;;;;;3.44;78.64;98198.78;103201;1300;25800;-76
2022/12/30 01:26:20;;;;;;;35.30;17.80;;;;;;;3.44;78.57;98192.16;103307;1298;138166;-76
2022/12/30 01:28:46;;;;;;;39.80;19.40;;;;;;;3.43;78.63;98186.07;103072;1291;25381;-76
2022/12/30 01:31:12;;;;;;;35.10;17.30;;;;;;;3.40;78.55;98187.48;103111;1294;138106;-76
2022/12/30 01:33:38;;;;;;;33.30;15.20;;;;;;;3.38;78.81;98188.59;103691;1314;22476;-76
2022/12/30 01:36:05;;;;;;;36.90;18.30;;;;;;;3.38;78.63;98188.59;103897;1303;23485;-76
2022/12/30 01:38:32;;;;;;;37.30;18.40;;;;;;;3.36;78.73;98187.63;103186;1291;139706;-76
2022/12/30 01:40:59;;;;;;;48.50;20.90;;;;;;;3.35;78.88;98190.66;103153;1310;24285;-76
2022/12/30 01:43:44;;;;;;;40.10;19.00;;;;;;;3.33;79.07;98188.65;103068;1313;138257;-76
2022/12/30 01:46:15;;;;;;;43.10;20.40;;;;;;;3.29;79.01;98193.58;103083;1291;25266;-76
2022/12/30 01:48:42;;;;;;;38.80;19.30;;;;;;;3.27;78.95;98191.42;102876;1313;138822;-76
2022/12/30 01:51:35;;;;;;;41.70;20.40;;;;;;;3.25;79.23;98186.63;103188;1301;23185;-76
2022/12/30 01:54:02;;;;;;;41.10;19.60;;;;;;;3.22;79.29;98178.75;103133;1300;23960;-76
2022/12/30 01:56:34;;;;;;;36.60;18.90;;;;;;;3.21;79.44;98177.59;103278;1290;138227;-76
2022/12/30 01:59:05;;;;;;;34.90;17.80;;;;;;;3.19;79.43;98182.52;103425;1291;25429;-76
2022/12/30 02:01:34;;;;;;;35.90;15.60;;;;;;;3.19;79.45;98181.89;103045;1307;138780;-76
2022/12/30 02:04:08;;;;;;;32.70;15.80;;;;;;;3.18;79.58;98180.65;103285;1289;22498;-76
2022/12/30 02:07:11;;;;;;;32.30;16.80;;;;;;;3.19;79.72;98177.76;103201;1298;139344;-76
2022/12/30 02:09:38;;;;;;;28.90;15.00;;;;;;;3.21;79.68;98180.23;103412;1314;22537;-76
2022/12/30 02:12:06;;;;;;;31.10;14.70;;;;;;;3.24;79.81;98180.45;103510;1306;22971;-76
2022/12/30 02:14:36;;;;;;;30.50;15.50;;;;;;;3.26;79.51;98179.95;103486;1306;140159;-76
2022/12/30 02:17:28;;;;;;;37.60;16.20;;;;;;;3.24;79.51;98179.71;103164;1300;22865;-76
2022/12/30 02:20:25;;;;;;;25.30;13.00;;;;;;;3.25;79.55;98178.34;103123;1301;139125;-76
2022/12/30 02:23:10;;;;;;;23.50;12.90;;;;;;;3.27;79.73;98177.97;103326;1289;22481;-76
2022/12/30 02:25:48;;;;;;;27.30;12.10;;;;;;;3.29;79.49;98169.37;103185;1307;138140;-76
2022/12/30 02:28:29;;;;;;;29.30;14.00;;;;;;;3.32;79.48;98166.30;103310;1313;22527;-76
2022/12/30 02:31:14;;;;;;;23.10;11.60;;;;;;;3.33;79.37;98170.52;103177;1297;138497;-76
2022/12/30 02:34:04;;;;;;;22.40;11.70;;;;;;;3.32;79.41;98176.73;105159;1313;22203;-76
2022/12/30 02:36:42;;;;;;;22.90;10.60;;;;;;;3.33;79.43;98181.75;104054;1291;140205;-76
2022/12/30 02:39:22;;;;;;;20.10;10.40;;;;;;;3.37;79.49;98182.30;103648;1284;24252;-76
2022/12/30 02:45:06;;;;;;;22.50;10.60;;;;;;;3.44;78.99;98173.89;104226;1289;23334;-76
2022/12/30 02:47:37;;;;;;;19.00;9.30;;;;;;;3.44;79.27;98172.45;104395;1289;22353;-77
2022/12/30 02:52:56;;;;;;;18.30;8.80;;;;;;;3.49;78.99;98181.96;103428;1291;25532;-76
2022/12/30 02:55:23;;;;;;;18.00;9.50;;;;;;;3.53;78.94;98186.86;105478;1296;138143;-76
2022/12/30 02:57:49;;;;;;;20.60;8.40;;;;;;;3.58;78.87;98186.38;103959;1288;23106;-77
2022/12/30 03:06:34;;;;;;;18.30;9.60;;;;;;;3.62;78.42;98188.89;104352;1298;22202;-77
2022/12/30 03:09:15;;;;;;;19.00;8.70;;;;;;;3.58;78.60;98183.75;103666;1292;22470;-76
2022/12/30 03:11:58;;;;;;;17.90;8.90;;;;;;;3.57;78.51;98179.61;103167;1301;23283;-76
2022/12/30 03:14:28;;;;;;;17.90;8.50;;;;;;;3.60;78.58;98182.50;102920;1290;138159;-76
2022/12/30 03:17:00;;;;;;;14.40;7.40;;;;;;;3.63;78.48;98183.72;103066;1295;25251;-76
2022/12/30 03:19:32;;;;;;;16.10;8.30;;;;;;;3.66;78.39;98189.06;103694;1299;138082;-76
2022/12/30 03:22:00;;;;;;;18.10;8.80;;;;;;;3.70;78.42;98193.41;103142;1288;26085;-77
2022/12/30 03:27:21;;;;;;;14.10;7.60;;;;;;;3.76;78.08;98195.73;103628;1288;22901;-76
2022/12/30 03:29:54;;;;;;;16.40;8.40;;;;;;;3.77;77.93;98198.63;103363;1289;25247;-76
2022/12/30 03:32:22;;;;;;;17.20;9.20;;;;;;;3.77;77.94;98196.02;103675;1306;137946;-76
2022/12/30 03:34:49;;;;;;;17.00;7.60;;;;;;;3.75;77.81;98196.02;103259;1291;24799;-76
2022/12/30 03:37:26;;;;;;;15.60;6.90;;;;;;;3.74;77.84;98197.93;103104;1291;138001;-76
2022/12/30 03:39:56;;;;;;;12.50;6.70;;;;;;;3.75;77.91;98203.27;102993;1298;22701;-76
2022/12/30 03:42:22;;;;;;;15.90;7.40;;;;;;;3.77;77.96;98208.16;102966;1291;138493;-76
2022/12/30 03:44:50;;;;;;;12.10;6.70;;;;;;;3.80;78.01;98209.23;103733;1284;24004;-76
2022/12/30 03:47:18;;;;;;;14.10;6.90;;;;;;;3.83;77.98;98211.35;102907;1291;22928;-76
2022/12/30 03:49:45;;;;;;;13.00;7.20;;;;;;;3.87;77.70;98208.90;103271;1297;138531;-76
2022/12/30 03:52:14;;;;;;;12.70;6.60;;;;;;;3.89;77.82;98216.11;103927;1285;22482;-76
2022/12/30 03:54:43;;;;;;;15.80;8.30;;;;;;;3.91;77.56;98219.19;103422;1287;138564;-76
2022/12/30 03:57:09;;;;;;;15.80;6.90;;;;;;;3.95;77.71;98216.73;103002;1287;25171;-76
2022/12/30 03:59:35;;;;;;;12.50;6.80;;;;;;;3.97;77.41;98221.74;102956;1297;23397;-76
2022/12/30 04:02:02;;;;;;;13.90;7.10;;;;;;;4.01;77.36;98225.35;102901;1298;138270;-76
2022/12/30 04:04:28;;;;;;;16.60;7.40;;;;;;;4.03;77.24;98231.98;102959;1291;25009;-76
2022/12/30 04:06:54;;;;;;;17.20;8.50;;;;;;;4.05;77.21;98231.77;103106;1291;138350;-76
2022/12/30 04:09:20;;;;;;;16.50;7.70;;;;;;;4.02;76.99;98236.78;103058;1292;22542;-76
2022/12/30 04:11:46;;;;;;;15.80;8.40;;;;;;;3.98;76.87;98239.84;103163;1288;22482;-76
2022/12/30 04:14:13;;;;;;;16.80;7.70;;;;;;;3.94;76.80;98245.29;103381;1312;137911;-76
2022/12/30 04:16:39;;;;;;;15.30;7.60;;;;;;;3.90;77.03;98242.15;103095;1313;26198;-76
2022/12/30 04:19:05;;;;;;;16.30;8.60;;;;;;;3.88;77.14;98243.91;103130;1288;138603;-76
2022/12/30 04:21:31;;;;;;;14.30;7.90;;;;;;;3.86;77.27;98244.58;102870;1294;25319;-76
2022/12/30 04:23:57;;;;;;;17.40;7.20;;;;;;;3.84;77.33;98248.05;102937;1307;22589;-76
2022/12/30 04:26:23;;;;;;;11.90;7.40;;;;;;;3.82;77.44;98254.27;102830;1291;138047;-76
2022/12/30 04:28:50;;;;;;;14.30;7.50;;;;;;;3.81;77.49;98252.73;102904;1291;22925;-76
2022/12/30 04:31:16;;;;;;;15.50;7.50;;;;;;;3.82;77.47;98258.17;103442;1291;138908;-76
2022/12/30 04:33:42;;;;;;;13.00;7.10;;;;;;;3.81;77.51;98260.58;103644;1281;22512;-76
2022/12/30 04:36:09;;;;;;;14.20;7.00;;;;;;;3.84;77.61;98264.95;103803;1288;23103;-76
2022/12/30 04:38:35;;;;;;;12.80;6.70;;;;;;;3.86;77.51;98263.56;104352;1288;137833;-76
2022/12/30 04:41:01;;;;;;;13.30;6.50;;;;;;;3.88;77.38;98266.30;104057;1284;24301;-76
2022/12/30 04:43:27;;;;;;;13.20;7.10;;;;;;;3.92;77.36;98269.24;102818;1314;139183;-76
2022/12/30 04:45:54;;;;;;;11.80;6.40;;;;;;;3.96;77.43;98273.55;102996;1314;22684;-76
2022/12/30 04:48:20;;;;;;;21.10;10.20;;;;;;;3.97;77.48;98280.86;102781;1313;138663;-75
2022/12/30 04:50:47;;;;;;;22.30;11.00;;;;;;;3.93;77.32;98285.00;103720;1292;22470;-76
2022/12/30 04:53:13;;;;;;;22.50;12.30;;;;;;;3.86;77.16;98287.80;103298;1289;26633;-76
2022/12/30 04:55:40;;;;;;;27.10;12.80;;;;;;;3.75;76.97;98288.04;103188;1297;138677;-76
2022/12/30 04:58:07;;;;;;;26.30;13.40;;;;;;;3.61;77.07;98293.41;103169;1289;22464;-76
2022/12/30 05:00:33;;;;;;;22.50;12.20;;;;;;;3.48;77.23;98294.59;103558;1306;138375;-76
2022/12/30 05:03:00;;;;;;;24.70;12.20;;;;;;;3.39;77.65;98295.14;103272;1305;22499;-76
2022/12/30 05:05:26;;;;;;;20.00;9.70;;;;;;;3.31;77.95;98297.21;103168;1313;22880;-76
2022/12/30 05:07:52;;;;;;;24.20;10.50;;;;;;;3.27;78.62;98303.30;103083;1298;139547;-76
2022/12/30 05:10:19;;;;;;;17.70;9.50;;;;;;;3.24;78.78;98309.33;103125;1310;22516;-76
2022/12/30 05:12:45;;;;;;;19.70;10.70;;;;;;;3.21;79.06;98311.84;103215;1298;138043;-76
2022/12/30 05:15:11;;;;;;;21.70;10.00;;;;;;;3.19;79.50;98316.39;102831;1293;26505;-76
2022/12/30 05:17:37;;;;;;;25.00;11.40;;;;;;;3.17;79.35;98320.73;103255;1289;22553;-76
2022/12/30 05:20:04;;;;;;;23.30;11.10;;;;;;;3.16;79.38;98324.77;102906;1289;138201;-76
2022/12/30 05:22:30;;;;;;;22.50;10.20;;;;;;;3.16;79.69;98330.23;103198;1306;22506;-76
2022/12/30 05:27:41;;;;;;;17.30;8.40;;;;;;;3.13;80.05;98338.06;103184;1297;22489;-76
2022/12/30 05:30:08;;;;;;;18.10;10.20;;;;;;;3.11;80.13;98339.28;103218;1305;22520;-76
2022/12/30 05:32:34;;;;;;;17.10;10.00;;;;;;;3.11;80.67;98342.23;103069;1298;138793;-76
2022/12/30 05:35:00;;;;;;;17.60;9.70;;;;;;;3.12;80.57;98347.87;103237;1313;24278;-76
2022/12/30 05:37:26;;;;;;;17.70;9.70;;;;;;;3.14;80.58;98352.25;103248;1291;138007;-76
2022/12/30 05:39:53;;;;;;;21.40;10.40;;;;;;;3.16;80.76;98354.25;103035;1291;25368;-76
2022/12/30 05:42:19;;;;;;;20.70;12.20;;;;;;;3.18;80.71;98358.52;103155;1289;24230;-76
2022/12/30 05:44:45;;;;;;;24.70;11.90;;;;;;;3.20;80.63;98361.48;103036;1309;138342;-76
2022/12/30 05:47:11;;;;;;;20.00;11.90;;;;;;;3.20;80.67;98359.02;103189;1296;22484;-76
2022/12/30 05:49:37;;;;;;;22.30;11.90;;;;;;;3.21;80.76;98359.66;103806;1312;138563;-76
2022/12/30 05:52:03;;;;;;;24.50;12.70;;;;;;;3.23;80.80;98359.05;103405;1291;22340;-76
2022/12/30 05:54:29;;;;;;;24.90;12.80;;;;;;;3.26;80.85;98361.05;103785;1306;138802;-77
2022/12/30 05:56:56;;;;;;;25.70;14.30;;;;;;;3.28;80.83;98362.17;103158;1287;22513;-76
2022/12/30 05:59:22;;;;;;;25.70;13.50;;;;;;;3.30;81.00;98362.30;103597;1289;24423;-76
2022/12/30 06:01:48;;;;;;;26.90;14.30;;;;;;;3.31;81.17;98370.77;103426;1291;139497;-76
2022/12/30 06:04:17;;;;;;;28.10;15.90;;;;;;;3.32;81.16;98384.46;103151;1291;25259;-76
2022/12/30 06:06:43;;;;;;;31.30;16.30;;;;;;;3.32;81.09;98390.39;103692;1289;140553;-76
2022/12/30 06:09:10;;;;;;;29.30;16.50;;;;;;;3.32;81.20;98387.78;104140;1291;22483;-76
2022/12/30 06:11:36;;;;;;;32.60;17.50;;;;;;;3.31;81.26;98389.27;103201;1313;22516;-76
2022/12/30 06:14:02;;;;;;;31.90;17.90;;;;;;;3.32;81.26;98390.48;102841;1313;138149;-76
2022/12/30 06:16:28;;;;;;;37.30;19.10;;;;;;;3.33;81.40;98400.94;104055;1292;22509;-76
2022/12/30 06:18:55;;;;;;;35.10;19.70;;;;;;;3.33;81.42;98406.83;102788;1294;138828;-75
2022/12/30 06:21:21;;;;;;;34.50;19.30;;;;;;;3.33;81.48;98408.02;103047;1300;23786;-75
2022/12/30 06:23:47;;;;;;;32.60;18.30;;;;;;;3.32;81.54;98410.14;103098;1307;25253;-76
2022/12/30 06:26:14;;;;;;;32.70;17.90;;;;;;;3.33;81.90;98412.14;104308;1304;139404;-76
2022/12/30 06:28:40;;;;;;;35.50;19.30;;;;;;;3.36;82.04;98418.28;103427;1305;24382;-76
2022/12/30 06:31:06;;;;;;;30.50;18.20;;;;;;;3.39;82.29;98422.69;103705;1287;140424;-76
2022/12/30 06:33:32;;;;;;;34.00;19.30;;;;;;;3.42;82.48;98426.83;104261;1291;25356;-76
2022/12/30 06:35:58;;;;;;;35.70;20.40;;;;;;;3.46;82.45;98435.10;103162;1304;22471;-75
2022/12/30 06:38:24;;;;;;;33.20;17.90;;;;;;;3.50;82.44;98438.14;103052;1288;138193;-75
2022/12/30 06:40:50;;;;;;;31.00;18.60;;;;;;;3.53;82.55;98445.77;103579;1294;25214;-76
2022/12/30 06:43:17;;;;;;;31.60;19.00;;;;;;;3.56;82.56;98449.55;103023;1299;138649;-76
2022/12/30 06:45:43;;;;;;;29.90;17.00;;;;;;;3.58;82.45;98454.24;103571;1292;22209;-76
2022/12/30 06:48:10;;;;;;;32.90;17.90;;;;;;;3.60;82.31;98459.19;103386;1313;22574;-76
2022/12/30 06:50:36;;;;;;;33.40;17.70;;;;;;;3.62;82.39;98458.86;103138;1298;139182;-76
2022/12/30 06:53:03;;;;;;;32.90;19.30;;;;;;;3.63;82.40;98458.91;103080;1289;22475;-76
2022/12/30 06:55:29;;;;;;;35.40;19.80;;;;;;;3.65;82.47;98466.57;103502;1304;138059;-76
2022/12/30 06:57:56;;;;;;;39.00;21.20;;;;;;;3.66;82.32;98478.10;103391;1291;26345;-76
2022/12/30 07:00:22;;;;;;;37.80;20.40;;;;;;;3.67;82.46;98483.21;103440;1294;25174;-76
2022/12/30 07:02:48;;;;;;;38.70;20.70;;;;;;;3.68;82.49;98483.08;103445;1289;22436;-77
2022/12/30 07:05:15;;;;;;;39.70;21.00;;;;;;;3.68;82.40;98489.63;103383;1291;22485;-76
2022/12/30 07:07:41;;;;;;;35.80;21.50;;;;;;;3.69;82.39;98492.08;102959;1313;138058;-76
2022/12/30 07:10:08;;;;;;;40.50;22.40;;;;;;;3.68;82.54;98493.55;103491;1292;22480;-76
2022/12/30 07:12:34;;;;;;;41.40;24.10;;;;;;;3.69;82.47;98497.05;103711;1304;138540;-75
2022/12/30 07:15:00;;;;;;;39.30;22.60;;;;;;;3.69;82.35;98502.11;103254;1313;25091;-76
2022/12/30 07:17:26;;;;;;;36.00;18.90;;;;;;;3.70;82.18;98505.79;103494;1305;22519;-76
2022/12/30 07:19:52;;;;;;;40.60;23.40;;;;;;;3.75;83.36;98504.79;103168;1291;138098;-76
2022/12/30 07:22:18;;;;;;;39.70;23.60;;;;;;;3.83;82.96;98506.23;102995;1300;22615;-76
2022/12/30 07:24:45;;;;;;;37.60;23.40;;;;;;;3.85;82.36;98509.05;103623;1291;138699;-77
2022/12/30 07:27:12;;;;;;;42.20;24.10;;;;;;;3.86;82.30;98509.44;104752;1291;23111;-76
2022/12/30 07:29:38;;;;;;;41.60;23.50;;;;;;;3.87;82.23;98513.55;103203;1289;24253;-75
2022/12/30 07:32:06;;;;;;;43.00;22.30;;;;;;;3.87;82.07;98512.84;102921;1305;138106;-76
2022/12/30 07:34:34;;;;;;;45.90;25.40;;;;;;;3.91;82.75;98514.35;104739;1298;22909;-76
2022/12/30 07:37:01;;;;;;;42.60;25.80;;;;;;;3.94;82.14;98520.92;103129;1291;138752;-75
2022/12/30 07:39:29;;;;;;;45.40;24.00;;;;;;;3.94;82.04;98530.29;103326;1313;22478;-75
2022/12/30 07:41:56;;;;;;;48.90;25.90;;;;;;;3.93;82.03;98533.92;103472;1290;22483;-75
2022/12/30 07:44:22;;;;;;;42.80;24.80;;;;;;;3.94;81.78;98539.98;103797;1298;138877;-75
2022/12/30 07:46:49;;;;;;;46.70;24.30;;;;;;;3.92;81.87;98540.35;104059;1289;22522;-75
2022/12/30 07:49:16;;;;;;;42.70;24.50;;;;;;;3.93;81.69;98537.98;102983;1285;139227;-76
2022/12/30 07:51:42;;;;;;;46.30;25.50;;;;;;;3.91;81.82;98542.09;103314;1298;22487;-75
2022/12/30 07:54:08;;;;;;;45.80;25.10;;;;;;;3.91;81.72;98546.27;103138;1297;22604;-75
2022/12/30 07:56:35;;;;;;;45.80;25.10;;;;;;;3.91;81.79;98551.45;103113;1304;138211;-75
2022/12/30 07:59:02;;;;;;;43.90;23.50;;;;;;;3.92;81.68;98551.74;103195;1289;22472;-75
2022/12/30 08:01:29;;;;;;;39.80;21.90;;;;;;;3.92;81.76;98554.10;103035;1289;139198;-75
2022/12/30 08:03:56;;;;;;;42.80;23.00;;;;;;;3.90;81.82;98562.79;103806;1305;25377;-75
2022/12/30 08:06:22;;;;;;;51.20;25.00;;;;;;;3.90;81.89;98568.31;103350;1289;25217;-75
2022/12/30 08:08:48;;;;;;;46.20;23.90;;;;;;;3.90;81.80;98573.38;103276;1297;138699;-75
2022/12/30 08:11:15;;;;;;;48.90;24.00;;;;;;;3.88;82.03;98572.85;104107;1284;22186;-76
2022/12/30 08:13:44;;;;;;;41.10;23.50;;;;;;;3.89;82.01;98573.36;103096;1312;139753;-75
2022/12/30 08:16:13;;;;;;;48.10;24.40;;;;;;;3.88;81.95;98571.59;103307;1288;25350;-75
2022/12/30 08:18:40;;;;;;;44.00;22.70;;;;;;;3.88;82.22;98578.99;103273;1315;138429;-75
2022/12/30 08:21:13;;;;;;;41.00;23.00;;;;;;;3.88;82.27;98577.08;104108;1287;22483;-75
2022/12/30 08:23:39;;;;;;;42.00;23.30;;;;;;;3.88;82.37;98584.02;103809;1287;25258;-75
2022/12/30 08:26:09;;;;;;;41.80;20.90;;;;;;;3.87;82.31;98585.20;102979;1313;138294;-76
2022/12/30 08:28:36;;;;;;;38.80;22.30;;;;;;;3.87;82.45;98591.70;103046;1297;25273;-75
2022/12/30 08:31:07;;;;;;;37.00;19.60;;;;;;;3.87;82.56;98595.23;103959;1287;138804;-75
2022/12/30 08:33:33;;;;;;;37.80;20.70;;;;;;;3.87;82.54;98593.45;103934;1297;22487;-75
2022/12/30 08:36:06;;;;;;;35.50;21.40;;;;;;;3.86;82.53;98595.65;103201;1304;23017;-76
2022/12/30 08:38:39;;;;;;;42.50;22.20;;;;;;;3.86;82.58;98598.17;104046;1291;138122;-74
2022/12/30 08:41:19;;;;;;;40.20;22.90;;;;;;;3.86;82.63;98600.79;103819;1289;25278;-75
2022/12/30 08:43:46;;;;;;;41.50;21.60;;;;;;;3.87;82.70;98605.68;103005;1304;138055;-75
2022/12/30 08:46:14;;;;;;;37.00;21.50;;;;;;;3.89;82.65;98607.97;103906;1310;22476;-76
2022/12/30 08:48:40;;;;;;;37.00;20.40;;;;;;;3.90;82.67;98606.74;103501;1312;139044;-76
2022/12/30 08:51:07;;;;;;;45.30;22.50;;;;;;;3.93;82.67;98612.11;103189;1298;22500;-76
2022/12/30 08:53:34;;;;;;;42.00;22.40;;;;;;;3.95;82.68;98614.75;103126;1291;25431;-76
2022/12/30 08:56:11;;;;;;;39.90;22.50;;;;;;;3.97;82.55;98620.38;103479;1292;138308;-75
2022/12/30 08:58:38;;;;;;;44.50;23.90;;;;;;;3.99;82.59;98624.65;102966;1307;23093;-75
2022/12/30 09:01:13;;;;;;;41.80;23.90;;;;;;;4.00;82.51;98624.48;103215;1306;138648;-76
2022/12/30 09:03:41;;;;;;;51.30;24.10;;;;;;;4.04;82.50;98627.12;103023;1305;23004;-76
2022/12/30 09:06:09;;;;;;;44.80;23.80;;;;;;;4.06;82.47;98637.09;103200;1290;22493;-75
2022/12/30 09:08:35;;;;;;;35.90;20.30;;;;;;;4.08;82.39;98637.48;102987;1300;138378;-75
2022/12/30 09:11:04;;;;;;;33.80;19.80;;;;;;;4.10;82.34;98639.60;103221;1312;22473;-76
2022/12/30 09:13:31;;;;;;;43.60;22.00;;;;;;;4.11;82.35;98643.91;103279;1313;138436;-78
2022/12/30 09:15:58;;;;;;;47.70;22.60;;;;;;;4.14;82.48;98646.66;103227;1298;24257;-77
2022/12/30 09:18:24;;;;;;;35.30;20.50;;;;;;;4.17;82.55;98642.79;105741;1309;22482;-77
2022/12/30 09:20:51;;;;;;;45.20;22.50;;;;;;;4.23;82.63;98639.75;104661;1292;138036;-77
2022/12/30 09:23:17;;;;;;;39.20;21.50;;;;;;;4.29;82.60;98639.66;102941;1287;25254;-77
2022/12/30 09:25:44;;;;;;;34.30;19.10;;;;;;;4.37;82.69;98637.82;103710;1298;138401;-77
2022/12/30 09:28:28;;;;;;;36.20;20.60;;;;;;;4.47;82.65;98644.96;103105;1313;22480;-76
2022/12/30 09:31:13;;;;;;;37.20;19.80;;;;;;;4.56;82.53;98641.96;103476;1291;138409;-77
2022/12/30 09:33:57;;;;;;;35.00;20.00;;;;;;;4.67;82.48;98643.70;103560;1314;22967;-77
2022/12/30 09:36:42;;;;;;;38.90;20.60;;;;;;;4.76;82.43;98643.24;103515;1298;139162;-76
2022/12/30 09:39:08;;;;;;;38.10;19.40;;;;;;;4.83;82.31;98648.88;103029;1287;23882;-77
2022/12/30 09:45:04;;;;;;;38.70;20.40;;;;;;;5.05;82.17;98636.73;103083;1289;138239;-76
2022/12/30 09:47:35;;;;;;;37.40;22.20;;;;;;;5.15;81.91;98639.80;103261;1289;24250;-76
2022/12/30 09:50:16;;;;;;;40.80;22.50;;;;;;;5.24;81.74;98638.86;103584;1290;140640;-76
2022/12/30 09:52:56;;;;;;;49.60;26.10;;;;;;;5.31;81.34;98636.20;103501;1289;24068;-77
2022/12/30 09:55:27;;;;;;;37.70;20.80;;;;;;;5.36;81.26;98634.84;103199;1289;138349;-77
2022/12/30 09:58:03;;;;;;;39.20;21.20;;;;;;;5.39;80.98;98635.66;103189;1301;26600;-77
2022/12/30 10:00:34;;;;;;;38.60;20.50;;;;;;;5.42;80.99;98633.55;103909;1303;138607;-76
2022/12/30 10:03:20;;;;;;;38.00;21.40;;;;;;;5.44;80.84;98636.16;103327;1289;22542;-77
2022/12/30 10:06:14;;;;;;;41.60;22.00;;;;;;;5.44;80.72;98638.28;103172;1291;25316;-77
2022/12/30 10:09:03;;;;;;;43.10;23.40;;;;;;;5.45;80.85;98640.29;104001;1291;138084;-77
2022/12/30 10:11:44;;;;;;;40.80;22.80;;;;;;;5.45;80.51;98630.70;104412;1299;22892;-77
2022/12/30 10:14:49;;;;;;;44.10;23.40;;;;;;;5.46;80.51;98631.52;103592;1305;138224;-77
2022/12/30 10:17:50;;;;;;;41.00;23.20;;;;;;;5.48;80.48;98631.80;104170;1298;22550;-76
2022/12/30 10:20:56;;;;;;;42.10;23.10;;;;;;;5.50;80.46;98626.98;104045;1288;138586;-77
2022/12/30 10:23:44;;;;;;;43.20;24.10;;;;;;;5.57;80.50;98620.16;103933;1298;23146;-77
2022/12/30 10:26:25;;;;;;;43.70;23.20;;;;;;;5.61;80.38;98620.51;103548;1307;138934;-77
2022/12/30 10:29:01;;;;;;;40.50;22.90;;;;;;;5.63;80.00;98619.52;105813;1288;22503;-77
2022/12/30 10:31:32;;;;;;;38.10;20.70;;;;;;;5.65;80.10;98623.04;103959;1298;138644;-77
2022/12/30 10:34:11;;;;;;;41.90;21.30;;;;;;;5.66;80.11;98623.18;103581;1313;24244;-77
2022/12/30 10:37:00;;;;;;;44.00;23.70;;;;;;;5.69;79.84;98625.31;103970;1313;139079;-77
2022/12/30 10:39:54;;;;;;;40.20;21.30;;;;;;;5.76;79.86;98631.58;104295;1305;24320;-77
2022/12/30 10:43:00;;;;;;;42.40;22.70;;;;;;;5.84;80.08;98625.50;103038;1298;25703;-77
2022/12/30 10:45:32;;;;;;;37.50;21.10;;;;;;;5.91;79.72;98623.52;103939;1311;22554;-77
2022/12/30 10:48:08;;;;;;;37.90;21.10;;;;;;;5.98;79.58;98621.81;103083;1313;22561;-77
2022/12/30 10:50:41;;;;;;;38.20;20.70;;;;;;;6.01;79.27;98621.34;103055;1304;138114;-76
2022/12/30 10:53:14;;;;;;;36.10;21.60;;;;;;;5.99;79.03;98619.05;104251;1297;22477;-77
2022/12/30 10:56:05;;;;;;;39.70;22.40;;;;;;;5.97;79.04;98612.92;103332;1294;138455;-76
2022/12/30 10:58:41;;;;;;;40.90;23.00;;;;;;;5.98;79.22;98614.58;103155;1289;22523;-76
2022/12/30 11:01:17;;;;;;;43.60;24.40;;;;;;;6.02;79.68;98624.09;103143;1307;139390;-76
2022/12/30 11:03:49;;;;;;;41.10;22.80;;;;;;;6.09;79.64;98626.36;103176;1298;22751;-76
2022/12/30 11:06:34;;;;;;;40.10;21.90;;;;;;;6.16;79.65;98623.22;103355;1296;22508;-77
2022/12/30 11:09:13;;;;;;;40.80;22.30;;;;;;;6.25;79.81;98622.27;103633;1297;24302;-77
2022/12/30 11:14:44;;;;;;;39.10;22.50;;;;;;;6.48;79.43;98619.90;103020;1289;140157;-76
2022/12/30 11:17:29;;;;;;;37.80;21.40;;;;;;;6.57;79.44;98623.70;103593;1297;25376;-77
2022/12/30 11:20:24;;;;;;;41.20;21.30;;;;;;;6.64;79.21;98624.75;103597;1287;138130;-76
2022/12/30 11:22:56;;;;;;;37.90;20.20;;;;;;;6.68;79.24;98616.62;103179;1307;25339;-76
2022/12/30 11:25:29;;;;;;;35.10;20.40;;;;;;;6.71;79.03;98614.21;103461;1313;138607;-76
2022/12/30 11:27:59;;;;;;;36.40;19.70;;;;;;;6.75;79.11;98619.79;103560;1298;22559;-76
2022/12/30 11:30:30;;;;;;;34.50;19.00;;;;;;;6.80;79.00;98624.17;103369;1301;25228;-77
2022/12/30 11:33:00;;;;;;;32.60;18.60;;;;;;;6.83;79.10;98619.54;103109;1312;137927;-76
2022/12/30 11:35:37;;;;;;;33.10;18.10;;;;;;;6.87;78.92;98621.13;103556;1289;24439;-76
2022/12/30 11:38:33;;;;;;;27.40;15.60;;;;;;;6.91;79.04;98627.02;103070;1305;138923;-76
2022/12/30 11:41:17;;;;;;;28.30;15.60;;;;;;;6.95;78.80;98625.84;103395;1289;22510;-76
2022/12/30 11:43:56;;;;;;;24.90;15.40;;;;;;;6.99;78.83;98621.98;103974;1304;138053;-77
2022/12/30 11:46:43;;;;;;;24.70;15.10;;;;;;;7.02;78.86;98618.70;103986;1294;22549;-77
2022/12/30 11:49:26;;;;;;;28.60;15.80;;;;;;;7.06;78.43;98618.84;104826;1298;139443;-77
2022/12/30 11:51:55;;;;;;;28.40;16.10;;;;;;;7.09;78.52;98623.33;103556;1309;22616;-77
2022/12/30 11:54:25;;;;;;;26.10;15.60;;;;;;;7.12;78.73;98621.61;103239;1313;25173;-77
2022/12/30 11:56:53;;;;;;;28.40;15.40;;;;;;;7.16;78.58;98622.66;103938;1306;139272;-76
2022/12/30 11:59:27;;;;;;;30.20;16.00;;;;;;;7.19;78.51;98620.39;103382;1299;23092;-76
2022/12/30 12:01:58;;;;;;;32.20;16.90;;;;;;;7.23;78.65;98617.36;104507;1294;138094;-77
2022/12/30 12:04:43;;;;;;;30.70;16.60;;;;;;;7.26;78.86;98614.96;104281;1310;22737;-77
2022/12/30 12:07:15;;;;;;;28.60;16.00;;;;;;;7.29;78.51;98618.69;103093;1301;138257;-77
2022/12/30 12:09:57;;;;;;;29.00;15.80;;;;;;;7.30;78.12;98618.48;103491;1301;22631;-77
2022/12/30 12:12:27;;;;;;;28.40;16.40;;;;;;;7.33;78.37;98619.82;103108;1313;22509;-77
2022/12/30 12:14:56;;;;;;;26.80;16.40;;;;;;;7.35;78.41;98615.89;103625;1296;137870;-77
2022/12/30 12:17:58;;;;;;;25.70;15.40;;;;;;;7.38;78.27;98619.73;103566;1298;24514;-77
2022/12/30 12:20:46;;;;;;;26.90;15.90;;;;;;;7.39;78.46;98624.20;103579;1296;138236;-76
2022/12/30 12:23:22;;;;;;;27.50;15.40;;;;;;;7.41;78.16;98626.10;103645;1297;22515;-77
2022/12/30 12:26:12;;;;;;;28.00;16.00;;;;;;;7.42;78.21;98624.73;103023;1305;138135;-77
2022/12/30 12:28:42;;;;;;;33.70;16.90;;;;;;;7.44;77.89;98624.11;103124;1302;24180;-77
2022/12/30 12:31:08;;;;;;;31.40;16.90;;;;;;;7.45;77.87;98623.82;103668;1313;140105;-77